sensor_id;sensor_type;location;lat;lon;timestamp;P1;durP1;ratioP1;P2;durP2;ratioP2
17398;SDS011;8817;48.170;8.592;2023-05-07T00:00:39;8.27;;;6.85;;
17398;SDS011;8817;48.170;8.592;2023-05-07T00:03:07;6.95;;;6.45;;
17398;SDS011;8817;48.170;8.592;2023-05-07T00:05:35;7.25;;;6.57;;
17398;SDS011;8817;48.170;8.592;2023-05-07T00:08:03;7.10;;;6.50;;
17398;SDS011;8817;48.170;8.592;2023-05-07T00:10:30;7.18;;;6.60;;
17398;SDS011;8817;48.170;8.592;2023-05-07T00:12:57;7.47;;;6.78;;
17398;SDS011;8817;48.170;8.592;2023-05-07T00:15:24;7.00;;;6.50;;
17398;SDS011;8817;48.170;8.592;2023-05-07T00:17:50;7.10;;;6.40;;
17398;SDS011;8817;48.170;8.592;2023-05-07T00:20:17;6.97;;;6.40;;
17398;SDS011;8817;48.170;8.592;2023-05-07T00:22:46;8.68;;;6.63;;
17398;SDS011;8817;48.170;8.592;2023-05-07T00:25:12;6.70;;;6.20;;
17398;SDS011;8817;48.170;8.592;2023-05-07T00:27:39;6.95;;;6.43;;
17398;SDS011;8817;48.170;8.592;2023-05-07T00:30:06;7.25;;;6.75;;
17398;SDS011;8817;48.170;8.592;2023-05-07T00:32:34;7.03;;;6.43;;
17398;SDS011;8817;48.170;8.592;2023-05-07T00:35:01;6.70;;;6.20;;
17398;SDS011;8817;48.170;8.592;2023-05-07T00:37:28;7.10;;;6.50;;
17398;SDS011;8817;48.170;8.592;2023-05-07T00:39:56;6.90;;;6.40;;
17398;SDS011;8817;48.170;8.592;2023-05-07T00:42:23;7.00;;;6.40;;
17398;SDS011;8817;48.170;8.592;2023-05-07T00:44:50;7.22;;;6.65;;
17398;SDS011;8817;48.170;8.592;2023-05-07T00:47:17;8.95;;;6.15;;
17398;SDS011;8817;48.170;8.592;2023-05-07T00:49:44;6.57;;;6.18;;
17398;SDS011;8817;48.170;8.592;2023-05-07T00:52:13;6.95;;;6.40;;
17398;SDS011;8817;48.170;8.592;2023-05-07T00:54:41;7.22;;;6.63;;
17398;SDS011;8817;48.170;8.592;2023-05-07T00:57:10;6.88;;;6.28;;
17398;SDS011;8817;48.170;8.592;2023-05-07T00:59:37;6.80;;;6.20;;
17398;SDS011;8817;48.170;8.592;2023-05-07T01:02:05;7.45;;;6.70;;
17398;SDS011;8817;48.170;8.592;2023-05-07T01:04:32;6.90;;;6.40;;
17398;SDS011;8817;48.170;8.592;2023-05-07T01:06:59;7.47;;;6.60;;
17398;SDS011;8817;48.170;8.592;2023-05-07T01:09:27;7.18;;;6.43;;
17398;SDS011;8817;48.170;8.592;2023-05-07T01:11:55;6.55;;;6.10;;
17398;SDS011;8817;48.170;8.592;2023-05-07T01:14:25;7.20;;;6.60;;
17398;SDS011;8817;48.170;8.592;2023-05-07T01:16:52;7.85;;;6.57;;
17398;SDS011;8817;48.170;8.592;2023-05-07T01:19:19;6.63;;;6.22;;
17398;SDS011;8817;48.170;8.592;2023-05-07T01:21:47;6.80;;;6.30;;
17398;SDS011;8817;48.170;8.592;2023-05-07T01:24:16;6.85;;;6.32;;
17398;SDS011;8817;48.170;8.592;2023-05-07T01:26:44;6.85;;;6.22;;
17398;SDS011;8817;48.170;8.592;2023-05-07T01:29:11;6.72;;;6.28;;
17398;SDS011;8817;48.170;8.592;2023-05-07T01:31:38;6.45;;;6.05;;
17398;SDS011;8817;48.170;8.592;2023-05-07T01:34:06;7.18;;;6.50;;
17398;SDS011;8817;48.170;8.592;2023-05-07T01:36:36;7.28;;;6.68;;
17398;SDS011;8817;48.170;8.592;2023-05-07T01:39:05;7.10;;;6.40;;
17398;SDS011;8817;48.170;8.592;2023-05-07T01:41:34;6.82;;;6.22;;
17398;SDS011;8817;48.170;8.592;2023-05-07T01:44:01;7.00;;;6.50;;
17398;SDS011;8817;48.170;8.592;2023-05-07T01:46:30;6.60;;;6.10;;
17398;SDS011;8817;48.170;8.592;2023-05-07T01:48:57;6.90;;;6.40;;
17398;SDS011;8817;48.170;8.592;2023-05-07T01:51:25;7.00;;;6.50;;
17398;SDS011;8817;48.170;8.592;2023-05-07T01:53:52;6.53;;;6.13;;
17398;SDS011;8817;48.170;8.592;2023-05-07T01:56:19;7.05;;;6.55;;
17398;SDS011;8817;48.170;8.592;2023-05-07T01:58:47;6.80;;;6.40;;
17398;SDS011;8817;48.170;8.592;2023-05-07T02:01:16;7.00;;;6.50;;
17398;SDS011;8817;48.170;8.592;2023-05-07T02:03:43;7.18;;;6.50;;
17398;SDS011;8817;48.170;8.592;2023-05-07T02:06:10;6.78;;;6.28;;
17398;SDS011;8817;48.170;8.592;2023-05-07T02:08:37;6.70;;;6.20;;
17398;SDS011;8817;48.170;8.592;2023-05-07T02:11:04;6.55;;;6.20;;
17398;SDS011;8817;48.170;8.592;2023-05-07T02:13:32;6.97;;;6.38;;
17398;SDS011;8817;48.170;8.592;2023-05-07T02:16:01;6.85;;;6.38;;
17398;SDS011;8817;48.170;8.592;2023-05-07T02:18:28;7.00;;;6.50;;
17398;SDS011;8817;48.170;8.592;2023-05-07T02:20:55;6.72;;;6.22;;
17398;SDS011;8817;48.170;8.592;2023-05-07T02:23:22;6.70;;;6.20;;
17398;SDS011;8817;48.170;8.592;2023-05-07T02:25:49;6.68;;;6.28;;
17398;SDS011;8817;48.170;8.592;2023-05-07T02:28:17;7.18;;;6.43;;
17398;SDS011;8817;48.170;8.592;2023-05-07T02:30:43;6.80;;;6.30;;
17398;SDS011;8817;48.170;8.592;2023-05-07T02:33:12;6.57;;;6.07;;
17398;SDS011;8817;48.170;8.592;2023-05-07T02:35:39;9.27;;;6.20;;
17398;SDS011;8817;48.170;8.592;2023-05-07T02:38:05;6.55;;;6.05;;
17398;SDS011;8817;48.170;8.592;2023-05-07T02:40:32;6.68;;;6.22;;
17398;SDS011;8817;48.170;8.592;2023-05-07T02:43:03;7.10;;;6.60;;
17398;SDS011;8817;48.170;8.592;2023-05-07T02:45:30;6.78;;;6.30;;
17398;SDS011;8817;48.170;8.592;2023-05-07T02:47:57;7.10;;;6.50;;
17398;SDS011;8817;48.170;8.592;2023-05-07T02:50:26;7.10;;;6.60;;
17398;SDS011;8817;48.170;8.592;2023-05-07T02:52:52;7.45;;;6.75;;
17398;SDS011;8817;48.170;8.592;2023-05-07T02:55:19;8.20;;;6.65;;
17398;SDS011;8817;48.170;8.592;2023-05-07T02:57:46;6.93;;;6.32;;
17398;SDS011;8817;48.170;8.592;2023-05-07T03:00:14;7.22;;;6.50;;
17398;SDS011;8817;48.170;8.592;2023-05-07T03:02:41;6.60;;;6.00;;
17398;SDS011;8817;48.170;8.592;2023-05-07T03:05:08;7.30;;;6.63;;
17398;SDS011;8817;48.170;8.592;2023-05-07T03:07:37;7.35;;;6.75;;
17398;SDS011;8817;48.170;8.592;2023-05-07T03:10:04;7.20;;;6.60;;
17398;SDS011;8817;48.170;8.592;2023-05-07T03:12:31;6.90;;;6.40;;
17398;SDS011;8817;48.170;8.592;2023-05-07T03:14:58;7.25;;;6.60;;
17398;SDS011;8817;48.170;8.592;2023-05-07T03:17:25;7.10;;;6.60;;
17398;SDS011;8817;48.170;8.592;2023-05-07T03:19:52;6.90;;;6.40;;
17398;SDS011;8817;48.170;8.592;2023-05-07T03:22:19;7.30;;;6.68;;
17398;SDS011;8817;48.170;8.592;2023-05-07T03:24:48;9.02;;;6.93;;
17398;SDS011;8817;48.170;8.592;2023-05-07T03:27:14;7.00;;;6.50;;
17398;SDS011;8817;48.170;8.592;2023-05-07T03:29:41;6.75;;;6.15;;
17398;SDS011;8817;48.170;8.592;2023-05-07T03:32:08;7.00;;;6.50;;
17398;SDS011;8817;48.170;8.592;2023-05-07T03:34:35;6.82;;;6.32;;
17398;SDS011;8817;48.170;8.592;2023-05-07T03:37:02;7.22;;;6.63;;
17398;SDS011;8817;48.170;8.592;2023-05-07T03:39:29;6.95;;;6.30;;
17398;SDS011;8817;48.170;8.592;2023-05-07T03:41:58;7.05;;;6.40;;
17398;SDS011;8817;48.170;8.592;2023-05-07T03:44:25;7.32;;;6.72;;
17398;SDS011;8817;48.170;8.592;2023-05-07T03:46:52;7.80;;;7.10;;
17398;SDS011;8817;48.170;8.592;2023-05-07T03:49:20;7.38;;;6.68;;
17398;SDS011;8817;48.170;8.592;2023-05-07T03:51:47;7.10;;;6.60;;
17398;SDS011;8817;48.170;8.592;2023-05-07T03:54:14;7.20;;;6.60;;
17398;SDS011;8817;48.170;8.592;2023-05-07T03:56:41;7.10;;;6.60;;
17398;SDS011;8817;48.170;8.592;2023-05-07T03:59:09;7.05;;;6.55;;
17398;SDS011;8817;48.170;8.592;2023-05-07T04:01:36;7.20;;;6.63;;
17398;SDS011;8817;48.170;8.592;2023-05-07T04:04:02;7.07;;;6.53;;
17398;SDS011;8817;48.170;8.592;2023-05-07T04:06:29;7.15;;;6.65;;
17398;SDS011;8817;48.170;8.592;2023-05-07T04:08:56;6.80;;;6.40;;
17398;SDS011;8817;48.170;8.592;2023-05-07T04:11:23;7.00;;;6.50;;
17398;SDS011;8817;48.170;8.592;2023-05-07T04:13:51;7.13;;;6.63;;
17398;SDS011;8817;48.170;8.592;2023-05-07T04:16:19;6.83;;;6.43;;
17398;SDS011;8817;48.170;8.592;2023-05-07T04:18:46;8.37;;;6.80;;
17398;SDS011;8817;48.170;8.592;2023-05-07T04:21:16;7.13;;;6.73;;
17398;SDS011;8817;48.170;8.592;2023-05-07T04:23:43;7.38;;;6.88;;
17398;SDS011;8817;48.170;8.592;2023-05-07T04:26:10;7.25;;;6.70;;
17398;SDS011;8817;48.170;8.592;2023-05-07T04:28:37;7.30;;;6.80;;
17398;SDS011;8817;48.170;8.592;2023-05-07T04:31:05;7.20;;;6.70;;
17398;SDS011;8817;48.170;8.592;2023-05-07T04:33:33;7.13;;;6.60;;
17398;SDS011;8817;48.170;8.592;2023-05-07T04:36:01;7.25;;;6.65;;
17398;SDS011;8817;48.170;8.592;2023-05-07T04:38:29;6.83;;;6.30;;
17398;SDS011;8817;48.170;8.592;2023-05-07T04:40:56;6.93;;;6.40;;
17398;SDS011;8817;48.170;8.592;2023-05-07T04:43:23;7.45;;;6.75;;
17398;SDS011;8817;48.170;8.592;2023-05-07T04:45:50;7.20;;;6.50;;
17398;SDS011;8817;48.170;8.592;2023-05-07T04:48:17;7.32;;;6.40;;
17398;SDS011;8817;48.170;8.592;2023-05-07T04:50:48;7.03;;;6.53;;
17398;SDS011;8817;48.170;8.592;2023-05-07T04:53:15;6.78;;;6.30;;
17398;SDS011;8817;48.170;8.592;2023-05-07T04:55:42;6.93;;;6.43;;
17398;SDS011;8817;48.170;8.592;2023-05-07T04:58:10;7.28;;;6.78;;
17398;SDS011;8817;48.170;8.592;2023-05-07T05:00:36;6.63;;;6.20;;
17398;SDS011;8817;48.170;8.592;2023-05-07T05:03:04;7.10;;;6.60;;
17398;SDS011;8817;48.170;8.592;2023-05-07T05:05:32;7.05;;;6.57;;
17398;SDS011;8817;48.170;8.592;2023-05-07T05:08:00;6.80;;;6.40;;
17398;SDS011;8817;48.170;8.592;2023-05-07T05:10:27;6.90;;;6.50;;
17398;SDS011;8817;48.170;8.592;2023-05-07T05:12:54;10.55;;;6.80;;
17398;SDS011;8817;48.170;8.592;2023-05-07T05:15:21;7.22;;;6.75;;
17398;SDS011;8817;48.170;8.592;2023-05-07T05:17:48;7.20;;;6.60;;
17398;SDS011;8817;48.170;8.592;2023-05-07T05:20:15;7.10;;;6.60;;
17398;SDS011;8817;48.170;8.592;2023-05-07T05:22:42;6.93;;;6.53;;
17398;SDS011;8817;48.170;8.592;2023-05-07T05:25:10;6.97;;;6.28;;
17398;SDS011;8817;48.170;8.592;2023-05-07T05:27:37;7.10;;;6.60;;
17398;SDS011;8817;48.170;8.592;2023-05-07T05:30:04;7.68;;;6.88;;
17398;SDS011;8817;48.170;8.592;2023-05-07T05:32:32;6.85;;;6.40;;
17398;SDS011;8817;48.170;8.592;2023-05-07T05:34:59;7.85;;;7.15;;
17398;SDS011;8817;48.170;8.592;2023-05-07T05:37:26;7.90;;;7.15;;
17398;SDS011;8817;48.170;8.592;2023-05-07T05:39:52;7.60;;;6.90;;
17398;SDS011;8817;48.170;8.592;2023-05-07T05:42:23;7.53;;;6.80;;
17398;SDS011;8817;48.170;8.592;2023-05-07T05:44:50;6.97;;;6.50;;
17398;SDS011;8817;48.170;8.592;2023-05-07T05:47:16;6.82;;;6.38;;
17398;SDS011;8817;48.170;8.592;2023-05-07T05:49:43;7.18;;;6.47;;
17398;SDS011;8817;48.170;8.592;2023-05-07T05:52:11;7.38;;;6.72;;
17398;SDS011;8817;48.170;8.592;2023-05-07T05:54:38;8.48;;;7.15;;
17398;SDS011;8817;48.170;8.592;2023-05-07T05:57:05;8.35;;;6.55;;
17398;SDS011;8817;48.170;8.592;2023-05-07T05:59:34;7.25;;;6.72;;
17398;SDS011;8817;48.170;8.592;2023-05-07T06:02:00;6.57;;;6.07;;
17398;SDS011;8817;48.170;8.592;2023-05-07T06:04:28;6.68;;;6.20;;
17398;SDS011;8817;48.170;8.592;2023-05-07T06:06:55;6.85;;;6.43;;
17398;SDS011;8817;48.170;8.592;2023-05-07T06:09:22;6.57;;;6.18;;
17398;SDS011;8817;48.170;8.592;2023-05-07T06:11:49;7.47;;;6.78;;
17398;SDS011;8817;48.170;8.592;2023-05-07T06:14:16;6.72;;;6.30;;
17398;SDS011;8817;48.170;8.592;2023-05-07T06:16:44;6.95;;;6.45;;
17398;SDS011;8817;48.170;8.592;2023-05-07T06:19:11;7.25;;;6.65;;
17398;SDS011;8817;48.170;8.592;2023-05-07T06:21:38;7.00;;;6.53;;
17398;SDS011;8817;48.170;8.592;2023-05-07T06:24:06;7.10;;;6.60;;
17398;SDS011;8817;48.170;8.592;2023-05-07T06:26:33;7.50;;;6.72;;
17398;SDS011;8817;48.170;8.592;2023-05-07T06:28:59;7.10;;;6.47;;
17398;SDS011;8817;48.170;8.592;2023-05-07T06:31:29;8.07;;;6.43;;
17398;SDS011;8817;48.170;8.592;2023-05-07T06:33:58;6.90;;;6.38;;
17398;SDS011;8817;48.170;8.592;2023-05-07T06:36:27;7.15;;;6.55;;
17398;SDS011;8817;48.170;8.592;2023-05-07T06:38:54;7.28;;;6.57;;
17398;SDS011;8817;48.170;8.592;2023-05-07T06:41:21;7.03;;;6.40;;
17398;SDS011;8817;48.170;8.592;2023-05-07T06:43:47;7.10;;;6.38;;
17398;SDS011;8817;48.170;8.592;2023-05-07T06:46:14;7.05;;;6.45;;
17398;SDS011;8817;48.170;8.592;2023-05-07T06:48:41;7.47;;;6.82;;
17398;SDS011;8817;48.170;8.592;2023-05-07T06:51:10;6.97;;;6.40;;
17398;SDS011;8817;48.170;8.592;2023-05-07T06:53:37;7.38;;;6.70;;
17398;SDS011;8817;48.170;8.592;2023-05-07T06:56:04;7.18;;;6.47;;
17398;SDS011;8817;48.170;8.592;2023-05-07T06:58:31;7.05;;;6.40;;
17398;SDS011;8817;48.170;8.592;2023-05-07T07:00:58;6.78;;;6.30;;
17398;SDS011;8817;48.170;8.592;2023-05-07T07:03:25;11.65;;;6.38;;
17398;SDS011;8817;48.170;8.592;2023-05-07T07:05:52;6.88;;;6.35;;
17398;SDS011;8817;48.170;8.592;2023-05-07T07:08:20;6.80;;;6.20;;
17398;SDS011;8817;48.170;8.592;2023-05-07T07:10:48;7.57;;;6.40;;
17398;SDS011;8817;48.170;8.592;2023-05-07T07:13:14;7.25;;;6.50;;
17398;SDS011;8817;48.170;8.592;2023-05-07T07:15:42;6.80;;;6.30;;
17398;SDS011;8817;48.170;8.592;2023-05-07T07:18:09;6.65;;;6.15;;
17398;SDS011;8817;48.170;8.592;2023-05-07T07:20:36;7.13;;;6.53;;
17398;SDS011;8817;48.170;8.592;2023-05-07T07:23:03;7.15;;;6.45;;
17398;SDS011;8817;48.170;8.592;2023-05-07T07:25:31;6.38;;;5.93;;
17398;SDS011;8817;48.170;8.592;2023-05-07T07:27:58;6.53;;;6.10;;
17398;SDS011;8817;48.170;8.592;2023-05-07T07:30:25;7.25;;;6.53;;
17398;SDS011;8817;48.170;8.592;2023-05-07T07:32:52;6.85;;;6.25;;
17398;SDS011;8817;48.170;8.592;2023-05-07T07:35:20;6.50;;;6.00;;
17398;SDS011;8817;48.170;8.592;2023-05-07T07:37:47;7.45;;;5.88;;
17398;SDS011;8817;48.170;8.592;2023-05-07T07:40:16;6.30;;;5.90;;
17398;SDS011;8817;48.170;8.592;2023-05-07T07:42:44;6.07;;;5.63;;
17398;SDS011;8817;48.170;8.592;2023-05-07T07:45:11;6.07;;;5.68;;
17398;SDS011;8817;48.170;8.592;2023-05-07T07:47:38;6.00;;;5.57;;
17398;SDS011;8817;48.170;8.592;2023-05-07T07:50:05;6.18;;;5.78;;
17398;SDS011;8817;48.170;8.592;2023-05-07T07:52:33;6.35;;;5.95;;
17398;SDS011;8817;48.170;8.592;2023-05-07T07:55:00;6.03;;;5.72;;
17398;SDS011;8817;48.170;8.592;2023-05-07T07:57:27;5.63;;;5.22;;
17398;SDS011;8817;48.170;8.592;2023-05-07T07:59:55;6.32;;;5.93;;
17398;SDS011;8817;48.170;8.592;2023-05-07T08:02:22;5.93;;;5.50;;
17398;SDS011;8817;48.170;8.592;2023-05-07T08:04:49;5.80;;;5.40;;
17398;SDS011;8817;48.170;8.592;2023-05-07T08:07:16;5.68;;;5.38;;
17398;SDS011;8817;48.170;8.592;2023-05-07T08:09:45;5.57;;;5.07;;
17398;SDS011;8817;48.170;8.592;2023-05-07T08:12:12;5.88;;;5.47;;
17398;SDS011;8817;48.170;8.592;2023-05-07T08:14:39;5.75;;;5.40;;
17398;SDS011;8817;48.170;8.592;2023-05-07T08:17:08;5.15;;;4.95;;
17398;SDS011;8817;48.170;8.592;2023-05-07T08:19:35;5.40;;;4.90;;
17398;SDS011;8817;48.170;8.592;2023-05-07T08:22:02;5.00;;;4.75;;
17398;SDS011;8817;48.170;8.592;2023-05-07T08:24:29;5.45;;;5.00;;
17398;SDS011;8817;48.170;8.592;2023-05-07T08:26:56;5.50;;;5.10;;
17398;SDS011;8817;48.170;8.592;2023-05-07T08:29:23;5.30;;;5.00;;
17398;SDS011;8817;48.170;8.592;2023-05-07T08:31:50;5.60;;;5.20;;
17398;SDS011;8817;48.170;8.592;2023-05-07T08:34:18;5.15;;;4.82;;
17398;SDS011;8817;48.170;8.592;2023-05-07T08:36:45;5.40;;;5.10;;
17398;SDS011;8817;48.170;8.592;2023-05-07T08:39:13;5.30;;;4.80;;
17398;SDS011;8817;48.170;8.592;2023-05-07T08:41:42;5.15;;;4.80;;
17398;SDS011;8817;48.170;8.592;2023-05-07T08:44:12;4.97;;;4.78;;
17398;SDS011;8817;48.170;8.592;2023-05-07T08:46:40;5.60;;;5.05;;
17398;SDS011;8817;48.170;8.592;2023-05-07T08:49:08;5.72;;;5.25;;
17398;SDS011;8817;48.170;8.592;2023-05-07T08:51:37;5.10;;;4.75;;
17398;SDS011;8817;48.170;8.592;2023-05-07T08:54:04;4.93;;;4.70;;
17398;SDS011;8817;48.170;8.592;2023-05-07T08:56:31;5.60;;;5.20;;
17398;SDS011;8817;48.170;8.592;2023-05-07T08:58:58;5.15;;;4.85;;
17398;SDS011;8817;48.170;8.592;2023-05-07T09:01:25;5.82;;;5.28;;
17398;SDS011;8817;48.170;8.592;2023-05-07T09:03:53;5.93;;;5.53;;
17398;SDS011;8817;48.170;8.592;2023-05-07T09:06:20;5.47;;;5.10;;
17398;SDS011;8817;48.170;8.592;2023-05-07T09:08:52;5.45;;;5.15;;
17398;SDS011;8817;48.170;8.592;2023-05-07T09:11:20;5.80;;;5.20;;
17398;SDS011;8817;48.170;8.592;2023-05-07T09:13:48;5.15;;;4.75;;
17398;SDS011;8817;48.170;8.592;2023-05-07T09:16:15;5.88;;;5.20;;
17398;SDS011;8817;48.170;8.592;2023-05-07T09:18:43;5.15;;;4.88;;
17398;SDS011;8817;48.170;8.592;2023-05-07T09:21:11;6.72;;;4.72;;
17398;SDS011;8817;48.170;8.592;2023-05-07T09:23:41;5.18;;;4.78;;
17398;SDS011;8817;48.170;8.592;2023-05-07T09:26:10;5.00;;;4.78;;
17398;SDS011;8817;48.170;8.592;2023-05-07T09:28:38;4.90;;;4.70;;
17398;SDS011;8817;48.170;8.592;2023-05-07T09:31:06;5.07;;;4.78;;
17398;SDS011;8817;48.170;8.592;2023-05-07T09:33:33;4.90;;;4.70;;
17398;SDS011;8817;48.170;8.592;2023-05-07T09:36:03;5.32;;;5.00;;
17398;SDS011;8817;48.170;8.592;2023-05-07T09:38:31;4.90;;;4.70;;
17398;SDS011;8817;48.170;8.592;2023-05-07T09:41:02;5.13;;;4.82;;
17398;SDS011;8817;48.170;8.592;2023-05-07T09:43:32;5.03;;;4.72;;
17398;SDS011;8817;48.170;8.592;2023-05-07T09:46:01;4.90;;;4.70;;
17398;SDS011;8817;48.170;8.592;2023-05-07T09:48:29;4.70;;;4.50;;
17398;SDS011;8817;48.170;8.592;2023-05-07T09:50:57;5.10;;;4.80;;
17398;SDS011;8817;48.170;8.592;2023-05-07T09:53:29;5.28;;;4.80;;
17398;SDS011;8817;48.170;8.592;2023-05-07T09:55:57;4.70;;;4.50;;
17398;SDS011;8817;48.170;8.592;2023-05-07T09:58:25;5.18;;;4.93;;
17398;SDS011;8817;48.170;8.592;2023-05-07T10:00:54;5.07;;;4.88;;
17398;SDS011;8817;48.170;8.592;2023-05-07T10:03:23;5.20;;;4.80;;
17398;SDS011;8817;48.170;8.592;2023-05-07T10:05:54;4.93;;;4.50;;
17398;SDS011;8817;48.170;8.592;2023-05-07T10:08:21;5.15;;;4.85;;
17398;SDS011;8817;48.170;8.592;2023-05-07T10:10:48;4.53;;;4.40;;
17398;SDS011;8817;48.170;8.592;2023-05-07T10:13:16;4.75;;;4.55;;
17398;SDS011;8817;48.170;8.592;2023-05-07T10:15:44;5.18;;;4.88;;
17398;SDS011;8817;48.170;8.592;2023-05-07T10:18:12;4.90;;;4.60;;
17398;SDS011;8817;48.170;8.592;2023-05-07T10:20:41;5.15;;;4.80;;
17398;SDS011;8817;48.170;8.592;2023-05-07T10:23:13;5.10;;;4.80;;
17398;SDS011;8817;48.170;8.592;2023-05-07T10:25:44;4.88;;;4.57;;
17398;SDS011;8817;48.170;8.592;2023-05-07T10:28:11;4.88;;;4.57;;
17398;SDS011;8817;48.170;8.592;2023-05-07T10:30:43;5.13;;;4.82;;
17398;SDS011;8817;48.170;8.592;2023-05-07T10:33:21;4.75;;;4.55;;
17398;SDS011;8817;48.170;8.592;2023-05-07T10:35:55;5.28;;;4.97;;
17398;SDS011;8817;48.170;8.592;2023-05-07T10:38:25;5.00;;;4.75;;
17398;SDS011;8817;48.170;8.592;2023-05-07T10:40:53;5.22;;;4.95;;
17398;SDS011;8817;48.170;8.592;2023-05-07T10:43:20;5.05;;;4.75;;
17398;SDS011;8817;48.170;8.592;2023-05-07T10:51:36;5.05;;;4.85;;
17398;SDS011;8817;48.170;8.592;2023-05-07T10:54:19;5.10;;;4.90;;
17398;SDS011;8817;48.170;8.592;2023-05-07T10:56:47;5.63;;;5.00;;
17398;SDS011;8817;48.170;8.592;2023-05-07T11:02:13;5.50;;;5.20;;
17398;SDS011;8817;48.170;8.592;2023-05-07T11:04:41;5.28;;;4.97;;
17398;SDS011;8817;48.170;8.592;2023-05-07T11:07:14;5.80;;;5.50;;
17398;SDS011;8817;48.170;8.592;2023-05-07T11:10:00;5.63;;;5.10;;
17398;SDS011;8817;48.170;8.592;2023-05-07T11:15:31;5.50;;;5.10;;
17398;SDS011;8817;48.170;8.592;2023-05-07T11:18:00;6.13;;;5.72;;
17398;SDS011;8817;48.170;8.592;2023-05-07T11:26:44;6.10;;;5.60;;
17398;SDS011;8817;48.170;8.592;2023-05-07T11:29:12;5.95;;;5.60;;
17398;SDS011;8817;48.170;8.592;2023-05-07T11:31:40;6.50;;;5.90;;
17398;SDS011;8817;48.170;8.592;2023-05-07T11:34:07;5.88;;;5.57;;
17398;SDS011;8817;48.170;8.592;2023-05-07T11:36:40;6.00;;;5.60;;
17398;SDS011;8817;48.170;8.592;2023-05-07T11:39:25;6.32;;;5.82;;
17398;SDS011;8817;48.170;8.592;2023-05-07T11:41:53;6.05;;;5.60;;
17398;SDS011;8817;48.170;8.592;2023-05-07T11:44:20;6.00;;;5.60;;
17398;SDS011;8817;48.170;8.592;2023-05-07T11:46:46;6.13;;;5.72;;
17398;SDS011;8817;48.170;8.592;2023-05-07T11:49:14;6.20;;;5.75;;
17398;SDS011;8817;48.170;8.592;2023-05-07T11:51:43;6.40;;;6.00;;
17398;SDS011;8817;48.170;8.592;2023-05-07T11:54:11;6.30;;;5.90;;
17398;SDS011;8817;48.170;8.592;2023-05-07T11:56:42;6.13;;;5.72;;
17398;SDS011;8817;48.170;8.592;2023-05-07T11:59:09;5.68;;;5.38;;
17398;SDS011;8817;48.170;8.592;2023-05-07T12:01:36;5.70;;;5.40;;
17398;SDS011;8817;48.170;8.592;2023-05-07T12:04:03;5.40;;;5.10;;
17398;SDS011;8817;48.170;8.592;2023-05-07T12:06:31;5.30;;;5.10;;
17398;SDS011;8817;48.170;8.592;2023-05-07T12:09:03;4.93;;;4.70;;
17398;SDS011;8817;48.170;8.592;2023-05-07T12:11:32;5.30;;;4.95;;
17398;SDS011;8817;48.170;8.592;2023-05-07T12:13:59;5.00;;;4.80;;
17398;SDS011;8817;48.170;8.592;2023-05-07T12:16:26;5.55;;;5.00;;
17398;SDS011;8817;48.170;8.592;2023-05-07T12:18:54;5.20;;;5.00;;
17398;SDS011;8817;48.170;8.592;2023-05-07T12:21:23;5.93;;;5.40;;
17398;SDS011;8817;48.170;8.592;2023-05-07T12:23:51;5.20;;;5.00;;
17398;SDS011;8817;48.170;8.592;2023-05-07T12:26:20;8.52;;;5.07;;
17398;SDS011;8817;48.170;8.592;2023-05-07T12:28:47;5.28;;;5.00;;
17398;SDS011;8817;48.170;8.592;2023-05-07T12:31:14;4.97;;;4.78;;
17398;SDS011;8817;48.170;8.592;2023-05-07T12:33:42;5.45;;;5.00;;
17398;SDS011;8817;48.170;8.592;2023-05-07T12:36:11;5.10;;;4.90;;
17398;SDS011;8817;48.170;8.592;2023-05-07T12:38:39;5.57;;;5.07;;
17398;SDS011;8817;48.170;8.592;2023-05-07T12:41:07;5.40;;;5.10;;
17398;SDS011;8817;48.170;8.592;2023-05-07T12:43:37;5.40;;;5.10;;
17398;SDS011;8817;48.170;8.592;2023-05-07T12:46:04;4.97;;;4.78;;
17398;SDS011;8817;48.170;8.592;2023-05-07T12:48:32;4.93;;;4.72;;
17398;SDS011;8817;48.170;8.592;2023-05-07T12:51:00;5.07;;;4.78;;
17398;SDS011;8817;48.170;8.592;2023-05-07T12:53:28;7.32;;;5.25;;
17398;SDS011;8817;48.170;8.592;2023-05-07T12:55:57;5.80;;;5.50;;
17398;SDS011;8817;48.170;8.592;2023-05-07T12:58:25;5.68;;;5.25;;
17398;SDS011;8817;48.170;8.592;2023-05-07T13:00:55;6.38;;;5.68;;
17398;SDS011;8817;48.170;8.592;2023-05-07T13:03:25;5.65;;;5.25;;
17398;SDS011;8817;48.170;8.592;2023-05-07T13:05:54;5.80;;;5.43;;
17398;SDS011;8817;48.170;8.592;2023-05-07T13:08:25;5.70;;;5.40;;
17398;SDS011;8817;48.170;8.592;2023-05-07T13:10:53;5.82;;;5.50;;
17398;SDS011;8817;48.170;8.592;2023-05-07T13:13:20;6.20;;;5.70;;
17398;SDS011;8817;48.170;8.592;2023-05-07T13:15:47;5.78;;;5.38;;
17398;SDS011;8817;48.170;8.592;2023-05-07T13:18:15;6.18;;;5.70;;
17398;SDS011;8817;48.170;8.592;2023-05-07T13:20:43;6.63;;;5.93;;
17398;SDS011;8817;48.170;8.592;2023-05-07T13:23:10;6.18;;;5.85;;
17398;SDS011;8817;48.170;8.592;2023-05-07T13:25:37;6.40;;;5.97;;
17398;SDS011;8817;48.170;8.592;2023-05-07T13:28:04;5.95;;;5.55;;
17398;SDS011;8817;48.170;8.592;2023-05-07T13:30:31;6.13;;;5.72;;
17398;SDS011;8817;48.170;8.592;2023-05-07T13:32:58;6.40;;;6.00;;
17398;SDS011;8817;48.170;8.592;2023-05-07T13:35:26;6.07;;;5.60;;
17398;SDS011;8817;48.170;8.592;2023-05-07T13:37:53;5.80;;;5.40;;
17398;SDS011;8817;48.170;8.592;2023-05-07T13:40:20;6.18;;;5.60;;
17398;SDS011;8817;48.170;8.592;2023-05-07T13:42:48;5.70;;;5.30;;
17398;SDS011;8817;48.170;8.592;2023-05-07T13:45:15;5.55;;;5.25;;
17398;SDS011;8817;48.170;8.592;2023-05-07T13:47:42;5.20;;;4.90;;
17398;SDS011;8817;48.170;8.592;2023-05-07T13:50:10;5.25;;;5.05;;
17398;SDS011;8817;48.170;8.592;2023-05-07T13:52:39;5.30;;;5.00;;
17398;SDS011;8817;48.170;8.592;2023-05-07T13:55:08;5.07;;;4.88;;
17398;SDS011;8817;48.170;8.592;2023-05-07T13:57:35;5.80;;;5.00;;
17398;SDS011;8817;48.170;8.592;2023-05-07T14:00:02;5.07;;;4.78;;
17398;SDS011;8817;48.170;8.592;2023-05-07T14:02:30;5.40;;;5.00;;
17398;SDS011;8817;48.170;8.592;2023-05-07T14:04:57;5.28;;;5.07;;
17398;SDS011;8817;48.170;8.592;2023-05-07T14:07:24;5.05;;;4.85;;
17398;SDS011;8817;48.170;8.592;2023-05-07T14:09:52;5.00;;;4.80;;
17398;SDS011;8817;48.170;8.592;2023-05-07T14:12:19;5.32;;;5.03;;
17398;SDS011;8817;48.170;8.592;2023-05-07T14:14:46;4.70;;;4.50;;
17398;SDS011;8817;48.170;8.592;2023-05-07T14:17:15;4.95;;;4.60;;
17398;SDS011;8817;48.170;8.592;2023-05-07T14:19:42;4.72;;;4.57;;
17398;SDS011;8817;48.170;8.592;2023-05-07T14:22:09;4.80;;;4.50;;
17398;SDS011;8817;48.170;8.592;2023-05-07T14:24:36;4.82;;;4.55;;
17398;SDS011;8817;48.170;8.592;2023-05-07T14:27:05;5.45;;;4.60;;
17398;SDS011;8817;48.170;8.592;2023-05-07T14:29:32;5.20;;;4.90;;
17398;SDS011;8817;48.170;8.592;2023-05-07T14:32:00;4.80;;;4.50;;
17398;SDS011;8817;48.170;8.592;2023-05-07T14:34:27;5.10;;;4.90;;
17398;SDS011;8817;48.170;8.592;2023-05-07T14:36:54;5.20;;;4.70;;
17398;SDS011;8817;48.170;8.592;2023-05-07T14:39:21;12.52;;;4.80;;
17398;SDS011;8817;48.170;8.592;2023-05-07T14:41:48;4.80;;;4.63;;
17398;SDS011;8817;48.170;8.592;2023-05-07T14:44:16;4.50;;;4.40;;
17398;SDS011;8817;48.170;8.592;2023-05-07T14:46:43;4.65;;;4.50;;
17398;SDS011;8817;48.170;8.592;2023-05-07T14:49:10;4.50;;;4.30;;
17398;SDS011;8817;48.170;8.592;2023-05-07T14:51:42;4.93;;;4.72;;
17398;SDS011;8817;48.170;8.592;2023-05-07T14:54:09;6.15;;;5.55;;
17398;SDS011;8817;48.170;8.592;2023-05-07T14:56:36;16.23;;;9.70;;
17398;SDS011;8817;48.170;8.592;2023-05-07T14:59:03;13.55;;;8.07;;
17398;SDS011;8817;48.170;8.592;2023-05-07T15:01:31;7.75;;;6.35;;
17398;SDS011;8817;48.170;8.592;2023-05-07T15:04:00;6.68;;;5.32;;
17398;SDS011;8817;48.170;8.592;2023-05-07T15:06:26;5.57;;;5.28;;
17398;SDS011;8817;48.170;8.592;2023-05-07T15:08:54;5.20;;;4.80;;
17398;SDS011;8817;48.170;8.592;2023-05-07T15:11:21;4.82;;;4.63;;
17398;SDS011;8817;48.170;8.592;2023-05-07T15:13:48;4.90;;;4.70;;
17398;SDS011;8817;48.170;8.592;2023-05-07T15:16:15;4.38;;;4.28;;
17398;SDS011;8817;48.170;8.592;2023-05-07T15:18:43;4.72;;;4.53;;
17398;SDS011;8817;48.170;8.592;2023-05-07T15:21:10;4.40;;;4.20;;